Sandringham, United Kingdom
Current Conditions -  °F | °C
As of 3:50 PM on Friday 24 Oct 2014 (Local Time) from EGYM Reporting Station
Light Rain Light Rain  
Wind Chill: 59°   Ceiling: 2200
Heat Index: 59°   Visibility: 6mi
Dew Point: 55°   Wind: 10mph
Humidity: 88%   Direction: 190°S
Pressure: 29.88"   Gusts: NA
Location:  52.82°N, 0.5°E
Report Text: EGYM 241450Z 19009KT 9999 -RA FEW014 BKN022 OVC030 15/13 Q1012 WHT TEMPO -RA SCT014 GRN
Loading
Personal Weather Stations






























Interactive Weather Map New forecast layout! Learn more

10-Day Weather Forecast

Advertisements
Track Severe Weather on mobile